Latest Weather Observations for Birdsville

IDQ60801

Issued at 1:32 pm EST Thursday 1 September 2016 (issued every 30 minutes, with the page automatically refreshed every 10 minutes)

About weather observations | Map of weather stations | Latest weather observations for QLD | Other Formats
Station Details ID: 038026 Name: BIRDSVILLE AIRPORT Lat: -25.90 Lon: 139.35 Height: 46.6 m
Data from the previous 72 hours. | See also: Recent months at Birdsville
Date/Time
EST
Temp
°C
App
Temp
°C
Dew
Point
°C
Rel
Hum
%
Delta-T
°C
Wind Press
QNH
hPa
Press
MSL
hPa
Rain since
9am
mm
Dir  Spd
km/h
Gust
km/h
Spd
kts
Gust
kts
01/01:30pm 18.1 18.2 16.6 91 0.9 ESE 11 13 6 7 1011.5 - 31.4
01/01:00pm 18.5 17.4 16.3 87 1.3 SSW 17 22 9 12 1012.3 - 27.2
01/12:30pm 18.4 17.2 16.0 86 1.4 SSW 17 30 9 16 1012.7 - 25.6
01/12:00pm 20.0 22.8 18.8 93 0.8 N 2 9 1 5 1013.0 1012.9 16.6
01/11:30am 20.6 21.5 18.5 88 1.3 E 11 15 6 8 1013.1 - 4.2
01/11:00am 21.8 22.8 18.6 82 2.0 E 11 13 6 7 1013.0 - 0.0
01/10:30am 21.6 23.0 18.6 83 1.9 ENE 9 13 5 7 1013.5 - 0.0
01/10:00am 21.2 20.1 18.6 85 1.6 NNE 22 28 12 15 1013.5 - 0.0
01/09:30am 20.5 18.5 18.4 88 1.3 NNE 26 32 14 17 1013.8 - 0.0
01/09:00am 19.6 18.7 18.3 92 0.8 NE 20 24 11 13 1013.7 1013.6 5.6
01/08:30am 18.9 19.1 17.7 93 0.7 E 13 19 7 10 1014.0 - 5.6
01/08:00am 18.6 18.3 17.4 93 0.7 E 15 20 8 11 1013.7 - 5.6
01/07:30am 18.5 19.9 17.3 93 0.7 E 6 7 3 4 1015.1 - 4.2
01/07:00am 18.4 19.5 17.2 93 0.7 E 7 13 4 7 1014.6 - 3.2
01/06:30am 18.2 18.8 16.9 92 0.8 ESE 9 13 5 7 1014.1 - 2.8
01/06:00am 18.1 18.6 16.6 91 0.9 ESE 9 11 5 6 1013.5 1013.5 1.6
01/05:30am 18.3 18.8 16.5 89 1.1 ESE 9 11 5 6 1013.5 - 0.6
01/05:00am 18.2 18.2 16.2 88 1.2 ESE 11 13 6 7 1013.0 - 0.4
01/04:30am 17.9 18.2 15.9 88 1.2 ESE 9 11 5 6 1013.1 - 0.4
01/04:00am 17.8 17.5 15.4 86 1.4 ESE 11 13 6 7 1013.4 - 0.4
01/03:30am 17.7 17.3 15.1 85 1.5 ESE 11 13 6 7 1013.9 - 0.4
01/03:00am 18.1 17.8 15.4 84 1.6 ESE 11 15 6 8 1014.5 1014.4 0.4
01/02:30am 18.2 17.8 15.3 83 1.7 ESE 11 13 6 7 1015.1 - 0.4
01/02:00am 18.5 18.0 15.0 80 2.0 ESE 11 13 6 7 1015.6 - 0.4
01/01:30am 18.6 18.4 14.7 78 2.3 ESE 9 13 5 7 1016.1 - 0.4
01/01:00am 18.9 18.3 14.6 76 2.5 ESE 11 17 6 9 1016.2 - 0.4
01/12:30am 19.5 18.7 14.1 71 3.1 ESE 11 15 6 8 1016.6 - 0.4
01/12:00am 20.9 19.0 11.8 56 5.1 ESE 13 17 7 9 1016.5 1016.6 0.0
 
Date/Time
EST
Temp
°C
App
Temp
°C
Dew
Point
°C
Rel
Hum
%
Delta-T
°C
Wind Press
QNH
hPa
Press
MSL
hPa
Rain since
9am
mm
Dir  Spd
km/h
Gust
km/h
Spd
kts
Gust
kts
31/11:30pm 21.0 19.1 11.9 56 5.1 ESE 13 17 7 9 1016.4 - 0.0
31/11:00pm 21.2 19.9 12.6 58 4.9 ESE 11 15 6 8 1016.6 - 0.0
31/10:30pm 21.1 19.8 12.5 58 4.9 ESE 11 13 6 7 1017.1 - 0.0
31/10:00pm 21.2 20.3 12.6 58 4.9 ESE 9 11 5 6 1017.2 - 0.0
31/09:30pm 21.5 21.1 12.9 58 4.9 ESE 7 9 4 5 1017.1 - 0.0
31/09:00pm 21.7 20.7 12.3 55 5.3 ESE 9 11 5 6 1016.5 1016.6 0.0
31/08:30pm 22.8 22.1 12.1 51 6.1 ESE 7 9 4 5 1016.6 - 0.0
31/08:00pm 23.4 22.3 11.8 48 6.6 ESE 9 13 5 7 1016.3 - 0.0
31/07:30pm 23.8 23.0 11.8 47 6.8 ESE 7 11 4 6 1016.2 - 0.0
31/07:00pm 24.4 23.1 11.4 44 7.3 ESE 9 13 5 7 1016.2 - 0.0
31/06:30pm 25.2 23.3 10.6 40 8.2 ESE 11 17 6 9 1016.1 - 0.0
31/06:00pm 25.8 22.5 9.6 36 8.9 ESE 17 20 9 11 1016.0 1016.1 0.0
31/05:30pm 26.3 23.6 10.5 37 8.9 ENE 15 20 8 11 1016.1 - 0.0
31/05:00pm 26.3 23.4 9.6 35 9.2 ESE 15 22 8 12 1015.8 - 0.0
31/04:30pm 26.8 24.7 9.6 34 9.5 E 11 20 6 11 1015.9 - 0.0
31/04:00pm 26.5 24.6 8.9 33 9.6 E 9 17 5 9 1015.9 - 0.0
31/03:30pm 26.5 23.7 8.5 32 9.8 E 13 19 7 10 1016.5 - 0.0
31/03:00pm 26.7 22.8 8.6 32 9.8 E 19 28 10 15 1016.4 1016.5 0.0
31/02:30pm 26.0 23.1 8.0 32 9.7 ESE 13 20 7 11 1017.2 - 0.0
31/02:00pm 25.7 21.6 7.8 32 9.6 E 19 26 10 14 1017.5 - 0.0
31/01:30pm 25.7 21.8 7.3 31 9.7 SE 17 28 9 15 1017.9 - 0.0
31/01:00pm 25.3 21.6 7.9 33 9.3 SE 17 30 9 16 1018.3 - 0.0
31/12:30pm 24.7 20.9 9.0 37 8.5 SE 19 28 10 15 1018.9 - 0.0
31/12:00pm 25.0 21.1 9.3 37 8.5 SE 20 28 11 15 1019.3 1019.2 0.0
31/11:30am 24.3 21.1 11.3 44 7.3 SE 19 28 10 15 1019.7 - 0.0
31/11:00am 23.2 20.4 12.5 51 6.1 SE 19 26 10 14 1019.9 - 0.0
31/10:30am 22.4 21.0 14.5 61 4.7 SE 15 20 8 11 1020.1 - 0.0
31/10:00am 21.5 20.2 14.9 66 3.9 SSE 15 19 8 10 1020.4 - 0.0
31/09:30am 21.4 20.0 15.5 69 3.5 SE 17 20 9 11 1020.5 - 0.0
31/09:00am 21.1 20.4 15.4 70 3.4 SE 13 17 7 9 1020.5 1020.5 0.2
31/08:30am 20.2 20.2 16.2 78 2.4 SE 11 15 6 8 1020.2 - 0.2
31/08:00am 19.2 19.5 16.1 82 1.9 SSE 9 13 5 7 1019.8 - 0.2
31/07:30am 18.4 19.2 16.4 88 1.2 SSE 7 9 4 5 1019.6 - 0.2
31/07:00am 18.3 19.0 16.1 87 1.3 ESE 7 9 4 5 1019.3 - 0.2
31/06:30am 18.5 20.6 16.3 87 1.3 CALM 0 0 0 0 1019.3 - 0.2
31/06:00am 18.4 20.5 16.2 87 1.3 CALM 0 0 0 0 1018.8 1018.8 0.2
31/05:30am 18.4 19.1 16.2 87 1.3 ESE 7 7 4 4 1018.3 - 0.2
31/05:00am 18.3 19.1 16.3 88 1.2 SE 7 9 4 5 1018.0 - 0.2
31/04:30am 18.1 18.5 16.3 89 1.1 SE 9 11 5 6 1017.7 - 0.2
31/04:00am 18.3 19.1 16.3 88 1.2 SE 7 9 4 5 1017.8 - 0.2
31/03:30am 18.4 18.4 16.2 87 1.3 SE 11 13 6 7 1017.8 - 0.2
31/03:00am 18.4 18.8 16.2 87 1.3 SSE 9 13 5 7 1018.0 1018.2 0.2
31/02:30am 18.4 19.1 16.2 87 1.3 S 7 9 4 5 1018.4 - 0.2
31/02:00am 18.4 19.1 16.2 87 1.3 SSW 7 7 4 4 1018.5 - 0.2
31/01:30am 18.4 19.1 16.0 86 1.4 SW 7 9 4 5 1018.8 - 0.2
31/01:00am 18.5 18.8 15.9 85 1.5 SW 9 11 5 6 1018.9 - 0.2
31/12:30am 18.9 18.4 15.9 83 1.8 SSW 13 17 7 9 1018.5 - 0.2
31/12:00am 19.1 19.4 16.0 82 1.8 S 9 11 5 6 1018.3 1018.3 0.0
 
Date/Time
EST
Temp
°C
App
Temp
°C
Dew
Point
°C
Rel
Hum
%
Delta-T
°C
Wind Press
QNH
hPa
Press
MSL
hPa
Rain since
9am
mm
Dir  Spd
km/h
Gust
km/h
Spd
kts
Gust
kts
30/11:30pm 19.3 19.5 15.8 80 2.1 SSW 9 13 5 7 1018.7 - 0.0
30/11:00pm 19.5 21.3 15.4 77 2.4 CALM 0 0 0 0 1018.5 - 0.0
30/10:30pm 19.7 18.3 15.6 77 2.4 SW 17 20 9 11 1018.4 - 0.0
30/10:00pm 20.1 20.1 15.1 73 2.9 ESE 9 11 5 6 1017.9 - 0.0
30/09:30pm 20.3 20.7 14.7 70 3.3 S 6 9 3 5 1017.4 - 0.0
30/09:00pm 20.6 20.3 14.5 68 3.6 ESE 9 13 5 7 1016.7 1017.3 0.0
30/08:30pm 20.7 19.7 14.6 68 3.6 SE 13 17 7 9 1016.3 - 0.0
30/08:00pm 20.7 19.0 14.8 69 3.5 S 17 20 9 11 1016.0 - 0.0
30/07:30pm 21.0 19.6 14.4 66 3.9 S 15 17 8 9 1015.9 - 0.0
30/07:00pm 22.3 20.8 13.1 56 5.3 S 13 17 7 9 1015.9 - 0.0
30/06:30pm 22.6 21.1 13.1 55 5.5 S 13 17 7 9 1015.6 - 0.0
30/06:00pm 23.2 21.3 13.1 53 5.8 SSW 15 20 8 11 1015.4 1015.5 0.0
30/05:30pm 23.7 20.7 12.4 49 6.5 SW 20 26 11 14 1014.8 - 0.0
30/05:00pm 24.9 19.5 9.6 38 8.4 SW 28 35 15 19 1014.4 - 0.0
30/04:30pm 25.8 21.6 9.6 36 8.9 SW 22 28 12 15 1014.0 - 0.0
30/04:00pm 26.4 22.6 9.7 35 9.2 SW 20 24 11 13 1013.5 - 0.0
30/03:30pm 26.6 22.9 9.5 34 9.4 WSW 19 24 10 13 1013.6 - 0.0
30/03:00pm 26.8 22.8 9.2 33 9.7 W 20 26 11 14 1013.7 1013.7 0.0
30/02:30pm 27.4 23.7 11.4 37 9.2 W 22 33 12 18 1013.9 - 0.0
30/02:00pm 28.1 25.1 12.0 36 9.3 WNW 19 26 10 14 1013.8 - 0.0
30/01:30pm 27.8 23.7 12.6 39 8.9 WNW 26 35 14 19 1013.8 - 0.0
30/01:07pm 28.7 23.8 12.6 37 9.5 NW 30 48 16 26 1014.2 - 0.0
30/01:00pm 28.9 23.7 12.8 37 9.5 NW 32 43 17 23 1014.2 - 0.0
30/12:54pm 29.1 23.4 14.1 40 9.0 NW 37 44 20 24 1014.2 - 0.0
30/12:30pm 28.3 23.9 14.2 42 8.5 N 30 41 16 22 1014.3 - 0.0
30/12:00pm 27.6 22.0 13.2 41 8.5 N 35 44 19 24 1014.9 1014.9 0.0
30/11:30am 26.9 21.4 12.5 40 8.4 N 33 41 18 22 1015.0 - 0.0
30/11:00am 25.3 19.6 11.8 43 7.7 N 33 43 18 23 1015.4 - 0.0
30/10:30am 24.8 19.1 11.7 44 7.4 N 33 41 18 22 1016.0 - 0.0
30/10:00am 24.1 18.1 10.7 43 7.5 N 33 41 18 22 1015.5 - 0.0
30/09:30am 23.0 17.8 10.1 44 7.1 N 28 33 15 18 1016.1 - 0.0
30/09:00am 22.1 17.2 9.9 46 6.6 N 26 33 14 18 1016.1 1016.2 0.0
30/08:30am 21.1 17.3 9.7 48 6.1 N 20 28 11 15 1016.0 - 0.0
30/08:00am 20.6 17.3 9.5 49 5.9 N 17 20 9 11 1015.7 - 0.0
30/07:30am 19.9 17.0 9.8 52 5.4 N 15 19 8 10 1015.1 - 0.0
30/07:00am 20.1 18.4 9.7 51 5.6 N 9 11 5 6 1015.1 - 0.0
30/06:30am 20.7 17.0 9.3 48 6.1 N 19 30 10 16 1014.3 - 0.0
30/06:00am 20.5 17.5 9.4 49 5.9 W 15 17 8 9 1014.1 1014.0 0.0
30/05:30am 21.2 15.2 8.8 45 6.6 NNE 30 35 16 19 1012.6 - 0.0
30/05:00am 21.3 15.1 9.2 46 6.5 NNE 32 39 17 21 1011.7 - 0.0
30/04:30am 21.2 16.3 10.1 49 6.0 NE 26 33 14 18 1011.7 - 0.0
30/04:00am 20.6 16.0 11.0 54 5.3 NE 26 30 14 16 1011.7 - 0.0
30/03:30am 20.5 16.2 10.9 54 5.3 NE 24 30 13 16 1011.9 - 0.0
30/03:00am 20.6 16.3 10.7 53 5.4 NE 24 28 13 15 1012.4 1012.4 0.0
30/02:30am 21.3 16.6 10.5 50 5.9 NE 26 33 14 18 1012.6 - 0.0
30/02:00am 22.8 16.7 9.9 44 7.0 NE 32 41 17 22 1012.3 - 0.0
30/01:30am 23.0 17.7 9.8 43 7.2 NNE 28 35 15 19 1012.8 - 0.0
30/01:00am 23.1 17.7 9.5 42 7.4 NNE 28 33 15 18 1013.0 - 0.0
30/12:30am 23.7 17.6 9.7 41 7.6 NNE 32 39 17 21 1012.9 - 0.0
30/12:00am 23.2 18.2 9.6 42 7.4 NNE 26 30 14 16 1013.3 1013.0 0.0
 
Date/Time
EST
Temp
°C
App
Temp
°C
Dew
Point
°C
Rel
Hum
%
Delta-T
°C
Wind Press
QNH
hPa
Press
MSL
hPa
Rain since
9am
mm
Dir  Spd
km/h
Gust
km/h
Spd
kts
Gust
kts
29/11:30pm 22.0 18.7 10.8 49 6.2 NNE 19 24 10 13 1013.4 - 0.0
29/11:00pm 21.6 18.3 11.0 51 5.9 NE 19 22 10 12 1013.2 - 0.0
29/10:30pm 22.3 18.9 10.5 47 6.5 NE 19 24 10 13 1013.5 - 0.0
29/10:00pm 23.0 20.1 9.8 43 7.2 NE 15 17 8 9 1013.4 - 0.0
29/09:30pm 23.5 20.3 9.9 42 7.4 NE 17 20 9 11 1013.4 - 0.0
29/09:00pm 24.0 21.5 9.6 40 7.9 NE 13 15 7 8 1013.5 1013.5 0.0
29/08:30pm 23.7 21.4 8.9 39 8.0 ENE 11 13 6 7 1013.3 - 0.0
29/08:00pm 23.8 20.9 8.2 37 8.3 ENE 13 15 7 8 1013.0 - 0.0
29/07:30pm 24.3 22.2 8.3 36 8.5 NE 9 13 5 7 1012.7 - 0.0
29/07:00pm 25.4 22.1 8.0 33 9.3 NE 15 17 8 9 1012.4 - 0.0
29/06:30pm 27.0 24.0 7.5 29 10.4 NE 13 15 7 8 1012.4 - 0.0
29/06:00pm 28.2 24.5 6.3 25 11.6 NNE 15 19 8 10 1012.0 1012.1 0.0
29/05:30pm 29.4 23.5 4.1 20 12.9 NNE 24 28 13 15 1011.6 - 0.0
29/05:00pm 30.3 25.1 3.4 18 13.7 N 20 30 11 16 1011.7 - 0.0
29/04:30pm 30.6 24.3 3.6 18 13.8 NNE 26 37 14 20 1011.2 - 0.0
29/04:00pm 30.6 24.0 1.9 16 14.2 N 26 35 14 19 1011.5 - 0.0
29/03:30pm 30.6 23.7 2.8 17 14.0 N 28 39 15 21 1011.7 - 0.0
29/03:00pm 30.6 23.7 2.8 17 14.0 N 28 37 15 20 1012.0 1012.0 0.0
29/02:30pm 30.7 23.2 3.7 18 13.8 N 32 50 17 27 1012.2 - 0.0
29/02:00pm 30.4 22.9 4.2 19 13.5 N 33 46 18 25 1012.7 - 0.0

Other Formats:

Comma delimited format used in spreadsheet applications
http://www.bom.gov.au/fwo/IDQ60801/IDQ60801.95482.axf

JavaScript Object Notation format (JSON) in row-major order
http://www.bom.gov.au/fwo/IDQ60801/IDQ60801.95482.json